Terminal Aerodrome Forecast
Issued by NWS

Home | Current Version | Previous Version | Text Only | Print | Product List | Glossary On
Versions: 1 2 3 4 5 6 7 8 9 10 11 12 13 14 15 16 17 18 19 20 21 22 23 24 25 26 27 28
000
FTAK31 PANC 040529
TAFAIL
TAF
PAIL 040529Z 0406/0506 10014G20KT P6SM FEW100 BKN200
     FM041500 09015G25KT P6SM VCSH SCT035 OVC060 WS020/10045KT
     FM042000 09020G28KT P6SM -SHRA SCT025 OVC040 WS020/10055KT
     FM050200 10012G18KT P6SM VCSH SCT025 BKN040 OVC080=

USA.gov is the U.S. government's official web portal to all federal, state and local government web resources and services.